Waverly, Tennessee
Current Conditions -  °F | °C
As of 10:15 PM on Saturday 25 Oct 2014 (Local Time) from KPHT Reporting Station
Broken Clouds Broken Clouds  
Wind Chill: 55°   Ceiling: 100
Heat Index: 55°   Visibility: 0mi
Dew Point: 55°   Wind: 3mph
Humidity: 100%   Direction: 230°SW
Pressure: 30.04"   Gusts: NA
Location:  36.08°N, 87.79°W
Report Text: KPHT 260315Z AUTO 23003KT M1/4SM BKN001 13/13 A3004 RMK
Loading
Personal Weather Stations






























Interactive Weather Map
Tropical Storm Tracking
New forecast layout! Learn more

10-Day Weather Forecast

Advertisements
Track Severe Weather on mobile